Time;durP1;ratioP1;P1;durP2;ratioP2;P2;SDS_P1;SDS_P2;PMS_P1;PMS_P2;Temp;Humidity;BMP_temperature;BMP_pressure;BME280_temperature;BME280_humidity;BME280_pressure;Samples;Min_cycle;Max_cycle;Signal;HPM_P1;HPM_P2
2022/12/11 00:00:48;;;;;;;38.83;20.05;;;;;;;-3.23;89.14;95293.97;2041087;29;20051;-56
2022/12/11 00:01:49;;;;;;;35.90;20.27;;;;;;;-3.29;89.23;95293.97;2041109;29;20054;-55
2022/12/11 00:02:50;;;;;;;38.70;20.25;;;;;;;-3.34;89.80;95291.47;2041486;29;20051;-57
2022/12/11 00:03:51;;;;;;;37.97;20.30;;;;;;;-3.33;89.89;95290.63;2042008;29;20063;-55
2022/12/11 00:04:52;;;;;;;34.63;17.50;;;;;;;-3.27;89.78;95293.97;2040889;29;20062;-57
2022/12/11 00:05:54;;;;;;;38.13;19.02;;;;;;;-3.26;88.98;95293.13;2041439;29;20513;-56
2022/12/11 00:06:55;;;;;;;38.42;20.67;;;;;;;-3.29;89.52;95293.13;2042297;29;20038;-64
2022/12/11 00:07:56;;;;;;;39.90;19.67;;;;;;;-3.29;89.23;95288.06;2041530;29;20046;-65
2022/12/11 00:08:57;;;;;;;34.53;18.15;;;;;;;-3.27;89.66;95291.44;2041404;29;20054;-64
2022/12/11 00:09:59;;;;;;;37.47;19.67;;;;;;;-3.27;89.37;95297.34;2041282;29;20047;-64
2022/12/11 00:11:00;;;;;;;39.92;20.88;;;;;;;-3.26;89.80;95294.00;2044627;29;20039;-64
2022/12/11 00:12:01;;;;;;;37.47;20.00;;;;;;;-3.23;90.39;95293.13;2042047;29;20062;-56
2022/12/11 00:13:02;;;;;;;35.35;18.77;;;;;;;-3.23;89.75;95293.13;2041685;29;20062;-56
2022/12/11 00:14:03;;;;;;;34.85;18.83;;;;;;;-3.25;89.13;95294.81;2041482;29;20051;-56
2022/12/11 00:15:05;;;;;;;31.95;17.25;;;;;;;-3.23;89.72;95296.50;2041915;29;20040;-56
2022/12/11 00:16:06;;;;;;;38.55;19.08;;;;;;;-3.19;89.04;95300.69;2041989;29;20050;-56
2022/12/11 00:17:07;;;;;;;36.53;18.48;;;;;;;-3.19;89.28;95300.69;2042185;29;20510;-58
2022/12/11 00:18:13;;;;;;;41.58;19.90;;;;;;;-3.16;89.01;95302.38;2041681;29;20058;-59
2022/12/11 00:19:15;;;;;;;33.17;17.83;;;;;;;-3.18;89.12;95299.88;2041041;29;20059;-59
2022/12/11 00:20:16;;;;;;;37.50;19.30;;;;;;;-3.18;88.95;95301.53;2040736;29;20059;-59
2022/12/11 00:21:17;;;;;;;38.92;19.85;;;;;;;-3.23;89.11;95298.22;2042101;29;20087;-59
2022/12/11 00:22:18;;;;;;;38.40;19.23;;;;;;;-3.41;89.75;95279.66;2041918;29;20047;-60
2022/12/11 00:23:19;;;;;;;36.53;19.60;;;;;;;-3.25;90.50;95299.91;2041477;29;20047;-59
2022/12/11 00:24:20;;;;;;;38.50;19.25;;;;;;;-3.28;89.89;95297.38;2041391;29;20492;-59
2022/12/11 00:25:21;;;;;;;34.75;19.85;;;;;;;-3.24;90.08;95301.59;2041829;29;20047;-59
2022/12/11 00:26:23;;;;;;;38.90;20.13;;;;;;;-3.23;89.77;95303.28;2041941;29;20058;-59
2022/12/11 00:27:24;;;;;;;35.25;18.42;;;;;;;-3.19;89.92;95305.78;2041894;29;20487;-59
2022/12/11 00:28:25;;;;;;;36.33;19.73;;;;;;;-3.21;89.41;95304.94;2041388;29;20054;-59
2022/12/11 00:29:26;;;;;;;39.80;20.63;;;;;;;-3.20;89.69;95299.03;2041351;29;20052;-59
2022/12/11 00:30:28;;;;;;;37.38;19.70;;;;;;;-3.26;89.59;95305.81;2042051;29;20403;-59
2022/12/11 00:31:29;;;;;;;38.08;19.70;;;;;;;-3.30;90.30;95294.00;2041760;29;20043;-59
2022/12/11 00:32:30;;;;;;;38.35;19.27;;;;;;;-3.27;89.61;95301.59;2041577;29;20063;-59
2022/12/11 00:33:32;;;;;;;39.95;20.33;;;;;;;-3.28;89.96;95305.84;2041910;29;20040;-59
2022/12/11 00:34:33;;;;;;;44.00;21.35;;;;;;;-3.26;90.11;95305.81;2041544;29;20066;-59
2022/12/11 00:35:37;;;;;;;36.78;19.75;;;;;;;-3.23;89.77;95305.81;2040835;29;20562;-59
2022/12/11 00:36:38;;;;;;;38.53;19.08;;;;;;;-3.23;90.12;95298.22;2040634;29;20055;-59
2022/12/11 00:37:40;;;;;;;38.13;19.60;;;;;;;-3.20;89.30;95299.03;2041866;29;20063;-59
2022/12/11 00:38:41;;;;;;;37.05;19.00;;;;;;;-3.24;89.72;95302.41;2041868;29;20039;-59
2022/12/11 00:39:42;;;;;;;38.72;20.08;;;;;;;-3.26;90.44;95299.06;2041560;29;20385;-59
2022/12/11 00:40:43;;;;;;;37.22;20.00;;;;;;;-3.25;90.18;95299.91;2041865;29;20054;-59
2022/12/11 00:41:45;;;;;;;40.58;21.13;;;;;;;-3.23;89.88;95301.59;2041924;29;20040;-59
2022/12/11 00:42:46;;;;;;;38.40;20.63;;;;;;;-3.19;89.94;95298.16;2041973;29;20048;-59
2022/12/11 00:43:47;;;;;;;39.25;19.83;;;;;;;-3.18;89.80;95301.53;2041817;29;20039;-59
2022/12/11 00:44:49;;;;;;;38.88;20.50;;;;;;;-3.19;89.04;95300.69;2041533;29;20507;-59
2022/12/11 00:45:50;;;;;;;36.92;20.20;;;;;;;-3.20;89.72;95298.19;2041753;29;20389;-59
2022/12/11 00:46:51;;;;;;;40.42;20.48;;;;;;;-3.18;89.70;95299.00;2041416;29;20058;-59
2022/12/11 00:47:53;;;;;;;39.85;20.90;;;;;;;-3.16;89.22;95294.75;2041767;29;20349;-59
2022/12/11 00:48:54;;;;;;;33.85;18.65;;;;;;;-3.16;89.85;95293.06;2041616;29;20412;-59
2022/12/11 00:49:55;;;;;;;41.15;21.20;;;;;;;-3.15;89.35;95301.56;2041824;29;20043;-59
2022/12/11 00:50:56;;;;;;;41.25;20.92;;;;;;;-3.16;89.61;95300.69;2041107;29;20047;-57
2022/12/11 00:51:57;;;;;;;38.97;19.92;;;;;;;-3.14;90.18;95293.06;2041512;29;20066;-60
2022/12/11 00:52:59;;;;;;;39.03;20.83;;;;;;;-3.11;89.96;95293.88;2041798;29;20039;-59
2022/12/11 00:54:00;;;;;;;40.97;20.02;;;;;;;-3.10;89.77;95297.28;2041085;29;20051;-59
2022/12/11 00:55:01;;;;;;;39.38;20.27;;;;;;;-3.12;89.38;95297.28;2041842;29;20040;-59
2022/12/11 00:56:09;;;;;;;39.03;19.35;;;;;;;-3.14;89.92;95296.44;2041231;29;20377;-59
2022/12/11 00:57:10;;;;;;;41.95;21.00;;;;;;;-3.10;89.33;95307.44;2041165;29;20492;-59
2022/12/11 00:58:11;;;;;;;33.50;18.58;;;;;;;-3.13;89.38;95293.06;2041812;29;20040;-59
2022/12/11 00:59:12;;;;;;;36.80;19.88;;;;;;;-3.08;89.79;95304.88;2041650;29;20055;-59
2022/12/11 01:00:13;;;;;;;37.65;21.25;;;;;;;-3.09;89.02;95298.97;2041203;29;20055;-59
2022/12/11 01:01:17;;;;;;;37.88;19.55;;;;;;;-3.12;88.63;95301.53;2041446;29;20061;-59
2022/12/11 01:02:18;;;;;;;36.45;19.88;;;;;;;-3.13;89.25;95307.44;2041665;29;20165;-59
2022/12/11 01:03:19;;;;;;;34.22;19.55;;;;;;;-3.11;89.13;95304.03;2041614;29;20055;-59
2022/12/11 01:04:20;;;;;;;38.70;20.25;;;;;;;-3.09;89.31;95304.03;2041406;29;20070;-59
2022/12/11 01:05:21;;;;;;;36.65;19.38;;;;;;;-3.12;89.36;95312.53;2040637;29;20051;-59
2022/12/11 01:06:23;;;;;;;40.40;21.52;;;;;;;-3.12;89.15;95309.16;2041771;29;20071;-59
2022/12/11 01:07:24;;;;;;;39.00;20.45;;;;;;;-3.25;89.52;95297.38;2041091;29;20052;-59
2022/12/11 01:08:25;;;;;;;36.67;19.27;;;;;;;-3.20;89.84;95314.25;2041478;29;20059;-59
2022/12/11 01:10:46;;;;;;;39.08;20.15;;;;;;;-3.12;89.80;95311.69;2041450;29;20066;-60
2022/12/11 01:11:47;;;;;;;40.08;20.73;;;;;;;-3.11;89.25;95310.81;2041350;29;20515;-58
2022/12/11 01:12:52;;;;;;;38.20;19.75;;;;;;;-3.06;89.33;95311.66;2042021;29;20028;-59
2022/12/11 01:13:53;;;;;;;37.42;19.65;;;;;;;-3.03;89.01;95309.09;2041678;29;20044;-58
2022/12/11 01:14:54;;;;;;;43.83;22.58;;;;;;;-3.08;89.68;95310.81;2041178;29;20052;-59
2022/12/11 01:15:56;;;;;;;41.13;20.92;;;;;;;-3.06;89.40;95305.72;2041781;29;20407;-59
2022/12/11 01:16:57;;;;;;;41.80;22.33;;;;;;;-3.05;89.37;95308.25;2041729;29;20055;-56
2022/12/11 01:17:58;;;;;;;40.90;21.10;;;;;;;-3.04;89.43;95314.19;2040972;29;20056;-55
2022/12/11 01:18:59;;;;;;;41.75;21.58;;;;;;;-3.06;90.09;95313.34;2041061;29;20511;-57
2022/12/11 01:20:00;;;;;;;42.60;22.70;;;;;;;-3.01;89.53;95311.63;2041007;29;20043;-56
2022/12/11 01:21:08;;;;;;;43.35;21.63;;;;;;;-3.00;90.30;95315.84;2041516;29;20429;-56
2022/12/11 01:22:10;;;;;;;40.67;21.50;;;;;;;-3.02;90.19;95312.47;2041892;29;20050;-60
2022/12/11 01:23:12;;;;;;;43.60;22.33;;;;;;;-3.00;89.89;95311.59;2041019;29;20290;-59
2022/12/11 01:24:13;;;;;;;44.22;21.75;;;;;;;-2.99;90.06;95313.31;2041534;29;20047;-60
2022/12/11 01:25:14;;;;;;;41.65;21.30;;;;;;;-3.05;89.42;95310.78;2041696;29;20051;-59
2022/12/11 01:26:15;;;;;;;41.53;20.77;;;;;;;-3.06;89.88;95320.97;2041007;29;20118;-59
2022/12/11 01:27:17;;;;;;;45.50;22.67;;;;;;;-3.06;89.80;95319.28;2041618;29;20466;-56
2022/12/11 01:28:18;;;;;;;42.72;21.98;;;;;;;-3.06;89.63;95316.72;2041652;29;20031;-56
2022/12/11 01:29:19;;;;;;;43.55;21.13;;;;;;;-3.07;89.96;95314.19;2041761;29;20044;-56
2022/12/11 01:30:21;;;;;;;45.38;22.63;;;;;;;-3.09;89.17;95318.44;2041284;29;20407;-56
2022/12/11 01:31:22;;;;;;;38.63;21.67;;;;;;;-3.12;89.68;95326.94;2041234;29;20048;-56
2022/12/11 01:32:23;;;;;;;36.25;20.70;;;;;;;-3.10;89.34;95317.63;2041531;29;20063;-57
2022/12/11 01:33:24;;;;;;;39.15;21.50;;;;;;;-3.12;89.69;95332.84;2041267;29;20419;-56
2022/12/11 01:34:28;;;;;;;44.33;22.17;;;;;;;-3.10;89.63;95330.31;2041471;29;20047;-57
2022/12/11 01:35:29;;;;;;;41.15;22.17;;;;;;;-3.09;89.31;95337.06;2040964;29;20356;-55
2022/12/11 01:36:30;;;;;;;40.55;21.77;;;;;;;-3.11;89.80;95339.59;2041533;29;20039;-57
2022/12/11 01:37:32;;;;;;;40.70;21.27;;;;;;;-3.13;89.45;95330.31;2041265;29;20059;-55
2022/12/11 01:38:33;;;;;;;42.40;20.63;;;;;;;-3.12;89.67;95332.00;2041605;29;20055;-57
2022/12/11 01:39:35;;;;;;;39.38;20.50;;;;;;;-3.14;89.50;95334.53;2041437;29;20519;-57
2022/12/11 01:40:36;;;;;;;47.05;23.55;;;;;;;-3.12;89.69;95326.94;2041699;29;20044;-56
2022/12/11 01:41:37;;;;;;;38.85;20.55;;;;;;;-3.13;89.70;95327.75;2041689;29;20407;-57
2022/12/11 01:42:38;;;;;;;44.47;22.52;;;;;;;-3.25;90.20;95331.22;2041211;29;20051;-55
2022/12/11 01:44:14;;;;;;;43.00;21.95;;;;;;;-3.22;89.14;95332.91;2041439;29;20055;-56
2022/12/11 01:45:25;;;;;;;38.05;19.92;;;;;;;-3.28;89.81;95318.53;2017116;29;20049;-56
2022/12/11 01:46:26;;;;;;;42.92;21.38;;;;;;;-3.30;89.79;95315.16;2016384;29;20509;-56
2022/12/11 01:47:27;;;;;;;42.85;21.35;;;;;;;-3.18;89.68;95332.00;2022739;29;20052;-55
2022/12/11 01:48:29;;;;;;;38.92;21.25;;;;;;;-3.17;89.31;95323.56;2041228;29;20506;-56
2022/12/11 01:49:30;;;;;;;39.72;20.52;;;;;;;-3.18;89.93;95337.97;2040796;29;20048;-56
2022/12/11 01:50:34;;;;;;;43.40;22.42;;;;;;;-3.16;90.08;95331.16;2040792;29;20056;-56
2022/12/11 01:51:44;;;;;;;45.20;23.00;;;;;;;-3.18;90.19;95332.88;2048220;29;20059;-59
2022/12/11 01:52:45;;;;;;;;;;;;;;;-3.15;90.42;95326.94;2048455;29;20043;-59
2022/12/11 01:53:49;;;;;;;42.83;20.88;;;;;;;-3.16;90.71;95338.78;2041651;29;19915;-59
2022/12/11 01:54:51;;;;;;;40.40;19.88;;;;;;;-3.17;90.00;95328.66;2047938;29;20043;-59
2022/12/11 01:55:52;;;;;;;40.15;20.63;;;;;;;-3.18;89.71;95332.00;2048625;29;20047;-59
2022/12/11 01:56:55;;;;;;;42.03;21.58;;;;;;;-3.13;89.85;95336.25;2041142;29;20048;-59
2022/12/11 01:57:56;;;;;;;41.40;21.85;;;;;;;-3.11;90.38;95333.69;2040410;29;20047;-59
2022/12/11 01:58:59;;;;;;;40.85;20.77;;;;;;;-3.17;90.64;95329.47;2024965;29;20044;-59
2022/12/11 02:00:00;;;;;;;44.00;22.38;;;;;;;-3.17;90.48;95334.56;2018265;29;20045;-59
2022/12/11 02:01:01;;;;;;;44.38;21.52;;;;;;;-3.11;89.86;95329.44;2025514;29;20037;-59
2022/12/11 02:02:07;;;;;;;44.45;22.70;;;;;;;-3.07;89.60;95334.50;2041037;29;20036;-59
2022/12/11 02:03:08;;;;;;;42.28;21.58;;;;;;;-3.13;89.65;95327.75;2040797;29;20047;-59
2022/12/11 02:04:09;;;;;;;40.42;21.60;;;;;;;-3.14;90.02;95326.91;2040802;29;20058;-59
2022/12/11 02:05:11;;;;;;;44.25;22.45;;;;;;;-3.14;90.10;95333.72;2041019;29;20048;-59
2022/12/11 02:06:31;;;;;;;43.25;21.73;;;;;;;-3.13;89.97;95335.38;2041381;29;20047;-59
2022/12/11 02:07:42;;;;;;;47.15;23.30;;;;;;;-3.17;90.36;95332.03;2041517;29;20420;-59
2022/12/11 02:08:43;;;;;;;44.83;21.95;;;;;;;-3.11;90.78;95336.22;2048710;29;20039;-59
2022/12/11 02:09:45;;;;;;;46.55;22.85;;;;;;;-3.10;90.54;95330.31;2047942;29;20051;-59
2022/12/11 02:11:03;;;;;;;45.70;22.38;;;;;;;-3.14;90.66;95332.00;2040684;29;20055;-59
2022/12/11 02:12:27;;;;;;;40.42;20.90;;;;;;;-3.17;90.29;95316.78;2027624;29;20047;-59
2022/12/11 02:13:34;;;;;;;40.92;20.63;;;;;;;-3.11;90.05;95328.59;2032230;29;20052;-60
2022/12/11 02:15:13;;;;;;;42.13;22.27;;;;;;;-3.09;90.58;95332.00;2040506;29;20467;-59
2022/12/11 02:16:17;;;;;;;43.45;22.08;;;;;;;-3.09;90.04;95331.16;2041645;29;20055;-59
2022/12/11 02:17:25;;;;;;;44.95;22.25;;;;;;;-3.11;90.04;95320.97;2040324;29;20171;-59
2022/12/11 02:18:29;;;;;;;42.80;22.17;;;;;;;-3.09;89.91;95326.06;2027615;29;20186;-59
2022/12/11 02:19:58;;;;;;;44.05;22.70;;;;;;;-3.08;90.06;95331.13;2034549;29;20048;-60
2022/12/11 02:21:05;;;;;;;42.33;20.77;;;;;;;-3.06;90.09;95321.81;2041874;29;20046;-59
2022/12/11 02:22:10;;;;;;;45.63;23.48;;;;;;;-3.11;89.86;95316.75;2041888;29;20051;-60
2022/12/11 02:23:11;;;;;;;41.50;21.73;;;;;;;-3.11;90.49;95323.53;2034033;29;20040;-60
2022/12/11 02:24:31;;;;;;;38.63;20.83;;;;;;;-3.11;90.20;95331.16;2034255;29;20424;-59
2022/12/11 02:25:53;;;;;;;42.97;20.77;;;;;;;-3.11;89.86;95323.53;2042806;29;20063;-60
2022/12/11 02:27:10;;;;;;;41.42;20.80;;;;;;;-3.15;90.53;95326.94;2042164;29;20039;-59
2022/12/11 02:28:33;;;;;;;46.58;22.23;;;;;;;-3.17;89.96;95326.94;2042202;29;20411;-61
2022/12/11 02:29:36;;;;;;;42.65;21.30;;;;;;;-3.22;89.72;95320.19;2044989;29;20407;-60
2022/12/11 02:30:37;;;;;;;44.63;22.77;;;;;;;-3.22;89.85;95321.03;2041924;29;20059;-59
2022/12/11 02:31:42;;;;;;;43.47;21.60;;;;;;;-3.22;90.12;95325.28;2026878;29;20044;-57
2022/12/11 02:32:53;;;;;;;40.88;20.92;;;;;;;-3.21;90.08;95330.34;2019540;29;20056;-57
2022/12/11 02:34:07;;;;;;;45.38;21.20;;;;;;;-3.32;90.10;95327.84;2029273;29;20055;-57
2022/12/11 02:35:14;;;;;;;40.13;20.98;;;;;;;-3.35;90.35;95324.47;2042518;29;20048;-57
2022/12/11 02:36:17;;;;;;;40.60;20.45;;;;;;;-3.33;90.69;95333.78;2044880;29;20036;-57
2022/12/11 02:37:19;;;;;;;41.92;20.70;;;;;;;-3.29;91.05;95328.69;2034012;29;20064;-57
2022/12/11 02:38:24;;;;;;;46.75;21.38;;;;;;;-3.34;90.90;95326.19;2034131;29;20048;-57
2022/12/11 02:39:25;;;;;;;40.90;19.88;;;;;;;-3.36;90.47;95327.88;2027005;29;20051;-58
2022/12/11 02:40:28;;;;;;;43.03;21.42;;;;;;;-3.33;90.85;95333.78;2026717;29;20051;-57
2022/12/11 02:41:29;;;;;;;43.05;21.70;;;;;;;-3.34;90.82;95327.03;2026550;29;20055;-56
2022/12/11 02:42:31;;;;;;;40.90;20.60;;;;;;;-3.32;90.80;95335.47;2026723;29;20508;-56
2022/12/11 02:43:32;;;;;;;43.08;22.27;;;;;;;-3.28;90.29;95332.94;2033663;29;20108;-56
2022/12/11 02:44:33;;;;;;;42.15;22.20;;;;;;;-3.30;90.41;95338.00;2042167;29;20078;-55
2022/12/11 02:45:34;;;;;;;44.20;21.58;;;;;;;-3.28;90.41;95335.47;2042061;29;20051;-56
2022/12/11 02:46:35;;;;;;;42.30;22.48;;;;;;;-3.28;90.48;95335.47;2042352;29;20039;-57
2022/12/11 02:47:36;;;;;;;42.08;21.45;;;;;;;-3.26;90.31;95339.69;2033867;29;20052;-57
2022/12/11 02:48:38;;;;;;;38.40;21.08;;;;;;;-3.29;90.74;95336.31;2041166;29;20055;-57
2022/12/11 02:49:40;;;;;;;40.15;21.65;;;;;;;-3.24;90.76;95334.59;2041808;29;20059;-57
2022/12/11 02:50:43;;;;;;;45.53;22.50;;;;;;;-3.25;90.40;95333.75;2034245;29;20515;-57
2022/12/11 02:51:44;;;;;;;42.88;22.40;;;;;;;-3.34;90.72;95321.13;2041980;29;20065;-58
2022/12/11 02:52:45;;;;;;;44.90;22.52;;;;;;;-3.32;90.70;95330.38;2042708;29;20047;-57
2022/12/11 02:53:46;;;;;;;43.75;22.52;;;;;;;-3.32;91.09;95324.47;2041610;29;20055;-57
2022/12/11 02:54:47;;;;;;;43.88;22.45;;;;;;;-3.32;91.50;95327.00;2041789;29;20542;-57
2022/12/11 02:55:49;;;;;;;42.92;22.15;;;;;;;-3.30;91.27;95337.16;2042427;29;20036;-57
2022/12/11 02:56:53;;;;;;;42.75;21.63;;;;;;;-3.32;90.95;95319.38;2026408;29;20052;-57
2022/12/11 02:58:15;;;;;;;44.22;22.65;;;;;;;-3.32;90.77;95330.38;2034718;29;20065;-57
2022/12/11 02:59:28;;;;;;;39.40;20.17;;;;;;;-3.35;90.88;95325.31;2041990;29;20043;-57
2022/12/11 03:00:30;;;;;;;41.13;21.10;;;;;;;-3.35;90.44;95324.47;2027770;29;20052;-57
2022/12/11 03:01:31;;;;;;;47.35;22.65;;;;;;;-3.34;90.84;95326.19;2034400;29;20044;-58
2022/12/11 03:02:32;;;;;;;43.65;21.50;;;;;;;-3.35;90.20;95330.41;2042467;29;20055;-58
2022/12/11 03:03:33;;;;;;;41.75;20.92;;;;;;;-3.35;90.74;95322.78;2042735;29;20039;-57
2022/12/11 03:04:35;;;;;;;42.97;21.75;;;;;;;-3.36;90.65;95321.09;2042096;29;20043;-57
2022/12/11 03:05:36;;;;;;;40.30;21.67;;;;;;;-3.37;90.42;95327.03;2041599;29;20446;-57
2022/12/11 03:06:43;;;;;;;46.35;21.98;;;;;;;-3.42;90.98;95328.75;2041677;29;20043;-57
2022/12/11 03:07:44;;;;;;;44.10;21.52;;;;;;;-3.43;90.57;95327.03;2033268;29;20492;-56
2022/12/11 03:08:45;;;;;;;43.17;20.75;;;;;;;-3.44;91.06;95325.38;2034260;29;20044;-57
2022/12/11 03:09:46;;;;;;;41.70;21.30;;;;;;;-3.44;90.97;95322.84;2042419;29;20055;-57
2022/12/11 03:10:47;;;;;;;44.72;21.83;;;;;;;-3.54;90.55;95321.16;2041875;29;20074;-57
2022/12/11 03:11:48;;;;;;;42.35;21.85;;;;;;;-3.58;91.23;95324.59;2042384;29;20476;-58
2022/12/11 03:12:51;;;;;;;44.20;22.27;;;;;;;-3.60;91.09;95324.56;2041934;29;20044;-57
2022/12/11 03:13:52;;;;;;;39.35;20.90;;;;;;;-3.57;91.15;95328.81;2048842;29;20051;-57
2022/12/11 03:14:53;;;;;;;41.53;21.40;;;;;;;-3.57;90.70;95327.09;2049666;29;20043;-57
2022/12/11 03:16:37;;;;;;;43.33;20.90;;;;;;;-3.58;90.98;95329.66;2042061;29;20036;-58
2022/12/11 03:18:01;;;;;;;43.97;21.25;;;;;;;-3.56;91.35;95325.41;2039269;29;20059;-57
2022/12/11 03:19:28;;;;;;;42.28;20.92;;;;;;;-3.57;91.24;95326.25;2041752;29;20043;-57
2022/12/11 03:20:46;;;;;;;43.67;21.60;;;;;;;-3.57;91.28;95333.88;2042402;29;20051;-57
2022/12/11 03:22:08;;;;;;;44.77;21.27;;;;;;;-3.55;90.97;95327.09;2048795;29;20055;-57
2022/12/11 03:23:24;;;;;;;41.42;19.88;;;;;;;-3.53;91.31;95322.00;2041873;29;20277;-57
2022/12/11 03:24:29;;;;;;;45.90;21.38;;;;;;;-3.50;91.14;95327.06;2041347;29;20427;-57
2022/12/11 03:25:38;;;;;;;44.75;21.85;;;;;;;-3.64;91.62;95310.19;2033883;29;20051;-57
2022/12/11 03:26:42;;;;;;;45.33;22.45;;;;;;;-3.60;91.77;95323.75;2028753;29;20045;-57
2022/12/11 03:27:49;;;;;;;45.20;20.58;;;;;;;-3.57;92.18;95329.63;2026400;29;20056;-57
2022/12/11 03:28:58;;;;;;;42.80;20.75;;;;;;;-3.49;91.68;95334.69;2034841;29;20047;-57
2022/12/11 03:30:20;;;;;;;41.78;21.55;;;;;;;-3.48;91.73;95333.84;2048879;29;20066;-57
2022/12/11 03:31:28;;;;;;;44.15;22.33;;;;;;;-3.45;91.60;95333.81;2047100;29;20044;-57
2022/12/11 03:32:34;;;;;;;41.10;19.23;;;;;;;-3.43;91.35;95326.22;2044531;29;20495;-57
2022/12/11 03:33:37;;;;;;;42.72;21.02;;;;;;;-3.46;90.93;95316.06;2034565;29;20052;-57
2022/12/11 03:34:47;;;;;;;41.80;20.27;;;;;;;-3.50;91.53;95316.91;2034389;29;20040;-57
2022/12/11 03:35:50;;;;;;;35.60;18.52;;;;;;;-3.42;91.15;95325.34;2034735;29;20056;-58
2022/12/11 03:36:51;;;;;;;38.00;19.90;;;;;;;-3.41;90.67;95330.44;2026733;29;20048;-58
2022/12/11 03:37:52;;;;;;;37.85;19.48;;;;;;;-3.39;90.79;95323.66;2025847;29;20056;-59
2022/12/11 03:38:56;;;;;;;37.35;19.40;;;;;;;-3.39;90.37;95327.91;2033577;29;20054;-59
2022/12/11 03:39:59;;;;;;;34.00;17.95;;;;;;;-3.41;89.72;95315.19;2025921;29;20134;-59
2022/12/11 03:41:01;;;;;;;37.00;19.30;;;;;;;-3.40;89.58;95319.41;2034262;29;20427;-58
2022/12/11 03:42:02;;;;;;;35.63;18.13;;;;;;;-3.44;89.69;95320.28;2026060;29;20496;-58
2022/12/11 03:43:04;;;;;;;34.65;18.23;;;;;;;-3.40;89.95;95321.94;2018198;29;20056;-59
2022/12/11 03:44:05;;;;;;;32.95;17.48;;;;;;;-3.39;89.54;95322.81;2025575;29;20053;-59
2022/12/11 03:45:07;;;;;;;33.38;18.15;;;;;;;-3.37;89.07;95327.03;2033870;29;20044;-59
2022/12/11 03:46:08;;;;;;;35.55;18.52;;;;;;;-3.34;88.78;95323.66;2033290;29;20055;-59
2022/12/11 03:47:09;;;;;;;35.58;18.65;;;;;;;-3.32;88.95;95325.31;2025654;29;20512;-59
2022/12/11 03:48:10;;;;;;;32.83;18.20;;;;;;;-3.31;88.63;95331.25;2033439;29;20051;-59
2022/12/11 03:49:16;;;;;;;32.75;17.70;;;;;;;-3.38;88.72;95330.41;2033437;29;20040;-59
2022/12/11 03:50:17;;;;;;;33.40;17.23;;;;;;;-3.33;88.87;95333.78;2019302;29;20044;-59
2022/12/11 03:51:18;;;;;;;31.75;17.40;;;;;;;-3.33;88.71;95338.03;2025279;29;20191;-59
2022/12/11 03:52:19;;;;;;;33.78;18.25;;;;;;;-3.40;88.41;95337.19;2040907;29;20542;-59
2022/12/11 03:53:20;;;;;;;35.90;18.27;;;;;;;-3.34;88.95;95337.19;2042295;29;20055;-59
2022/12/11 03:54:22;;;;;;;34.25;17.83;;;;;;;-3.37;88.22;95341.41;2040845;29;20075;-59
2022/12/11 03:55:23;;;;;;;34.45;18.83;;;;;;;-3.34;88.34;95339.72;2033577;29;20056;-59
2022/12/11 03:56:24;;;;;;;33.97;18.48;;;;;;;-3.34;88.53;95338.88;2025887;29;20079;-59
2022/12/11 03:57:27;;;;;;;34.40;18.90;;;;;;;-3.40;88.69;95349.88;2033749;29;20048;-59
2022/12/11 03:58:29;;;;;;;33.63;18.85;;;;;;;-3.36;88.77;95343.13;2041572;29;20459;-59
2022/12/11 03:59:30;;;;;;;35.08;19.02;;;;;;;-3.42;88.41;95338.91;2025343;29;20049;-60
2022/12/11 04:00:31;;;;;;;37.88;19.50;;;;;;;-3.38;88.55;95350.72;2033377;29;20071;-59
2022/12/11 04:01:32;;;;;;;31.60;17.58;;;;;;;-3.38;88.46;95345.66;2041262;29;20056;-58
2022/12/11 04:02:33;;;;;;;36.78;19.27;;;;;;;-3.36;88.40;95343.13;2041033;29;20056;-57
2022/12/11 04:03:34;;;;;;;29.85;16.65;;;;;;;-3.37;88.68;95339.75;2042016;29;20055;-57
2022/12/11 04:04:39;;;;;;;34.85;18.02;;;;;;;-3.40;88.70;95342.25;2040930;29;20059;-57
2022/12/11 04:05:48;;;;;;;33.60;18.25;;;;;;;-3.40;87.97;95339.72;2041524;29;20059;-57
2022/12/11 04:06:49;;;;;;;30.90;16.25;;;;;;;-3.36;88.00;95340.56;2042032;29;20063;-57
2022/12/11 04:07:50;;;;;;;30.45;16.52;;;;;;;-3.36;87.85;95332.97;2041510;29;20483;-57
2022/12/11 04:08:51;;;;;;;30.98;17.38;;;;;;;-3.37;87.72;95343.94;2042006;29;20028;-57
2022/12/11 04:09:52;;;;;;;35.22;17.25;;;;;;;-3.36;87.30;95341.41;2041601;29;20059;-57
2022/12/11 04:12:13;;;;;;;31.58;16.70;;;;;;;-3.34;87.12;95337.19;2041634;29;20059;-57
2022/12/11 04:13:14;;;;;;;28.15;15.27;;;;;;;-3.34;87.22;95342.25;2041330;29;20043;-57
2022/12/11 04:15:35;;;;;;;34.72;16.00;;;;;;;-3.38;86.84;95335.50;2041941;29;20104;-57
2022/12/11 04:16:36;;;;;;;33.50;16.55;;;;;;;-3.36;86.75;95340.56;2041843;29;20056;-58
2022/12/11 04:24:15;;;;;;;28.88;16.00;;;;;;;-3.42;87.74;95328.75;2041489;29;20055;-65
2022/12/11 04:25:16;;;;;;;31.95;16.75;;;;;;;-3.44;87.85;95329.59;2042036;29;20036;-64
2022/12/11 04:26:18;;;;;;;33.70;16.77;;;;;;;-3.44;87.32;95325.38;2042039;29;20032;-65
2022/12/11 04:28:39;;;;;;;30.15;15.65;;;;;;;-3.46;87.37;95332.13;2041626;29;20051;-64
2022/12/11 04:29:40;;;;;;;31.60;16.40;;;;;;;-3.45;87.88;95332.97;2041892;29;20095;-65
2022/12/11 04:30:47;;;;;;;30.08;15.75;;;;;;;-3.43;87.82;95336.38;2041673;29;20412;-64
2022/12/11 04:31:49;;;;;;;30.63;16.20;;;;;;;-3.46;87.12;95337.22;2041529;29;20052;-60
2022/12/11 04:32:50;;;;;;;32.08;17.15;;;;;;;-3.46;87.29;95334.69;2041119;29;20059;-56
2022/12/11 04:33:52;;;;;;;31.00;16.23;;;;;;;-3.42;87.74;95335.50;2041257;29;20492;-55
2022/12/11 04:34:53;;;;;;;29.35;16.33;;;;;;;-3.43;87.28;95334.66;2041714;29;20066;-56
2022/12/11 04:35:56;;;;;;;34.92;17.73;;;;;;;-3.44;87.18;95330.44;2041623;29;20048;-56
2022/12/11 04:36:57;;;;;;;32.95;16.73;;;;;;;-3.42;86.98;95332.97;2041460;29;20048;-56
2022/12/11 04:37:59;;;;;;;30.15;16.42;;;;;;;-3.42;87.45;95328.75;2041509;29;20156;-56
2022/12/11 04:39:00;;;;;;;30.05;16.02;;;;;;;-3.43;87.76;95332.13;2041207;29;20051;-56
2022/12/11 04:40:03;;;;;;;32.28;17.00;;;;;;;-3.44;87.41;95335.53;2040841;29;20155;-56
2022/12/11 04:41:09;;;;;;;30.80;16.42;;;;;;;-3.44;87.40;95339.75;2041453;29;20035;-56
2022/12/11 04:42:10;;;;;;;30.67;16.52;;;;;;;-3.41;87.41;95338.03;2041376;29;20487;-59
2022/12/11 04:43:11;;;;;;;30.55;16.40;;;;;;;-3.44;87.69;95343.16;2041875;29;20033;-59
2022/12/11 04:44:12;;;;;;;30.70;16.27;;;;;;;-3.48;86.59;95338.91;2041948;29;20040;-59
2022/12/11 04:45:14;;;;;;;31.63;17.10;;;;;;;-3.45;86.84;95338.91;2041265;29;20352;-59
2022/12/11 04:46:19;;;;;;;28.73;15.70;;;;;;;-3.45;87.22;95338.91;2041388;29;20043;-59
2022/12/11 04:47:20;;;;;;;30.48;15.10;;;;;;;-3.45;86.72;95333.81;2041200;29;20055;-59
2022/12/11 04:48:21;;;;;;;30.05;16.27;;;;;;;-3.45;86.41;95330.44;2041763;29;20054;-58
2022/12/11 04:49:22;;;;;;;30.48;16.40;;;;;;;-3.46;87.07;95332.13;2041744;29;20066;-59
2022/12/11 04:50:24;;;;;;;30.05;16.02;;;;;;;-3.50;87.13;95327.06;2041397;29;20054;-59
2022/12/11 04:51:26;;;;;;;32.58;17.00;;;;;;;-3.49;87.49;95331.31;2041838;29;20044;-59
2022/12/11 04:52:27;;;;;;;31.23;16.08;;;;;;;-3.47;87.06;95329.63;2041144;29;20480;-59
2022/12/11 04:53:28;;;;;;;30.42;15.57;;;;;;;-3.44;87.14;95329.59;2041891;29;20047;-59
2022/12/11 04:54:30;;;;;;;30.90;16.52;;;;;;;-3.45;86.72;95325.38;2041611;29;20058;-59
2022/12/11 04:55:31;;;;;;;29.52;16.23;;;;;;;-3.53;86.57;95320.31;2041835;29;20047;-59
2022/12/11 04:56:32;;;;;;;29.85;16.42;;;;;;;-3.47;87.08;95330.47;2041649;29;20079;-59
2022/12/11 04:57:34;;;;;;;30.55;16.73;;;;;;;-3.44;87.10;95330.44;2041687;29;20166;-59
2022/12/11 04:58:35;;;;;;;28.40;15.50;;;;;;;-3.41;86.90;95332.97;2041118;29;20055;-59
2022/12/11 04:59:37;;;;;;;34.55;17.27;;;;;;;-3.46;86.21;95327.06;2041425;29;20067;-59
2022/12/11 05:00:39;;;;;;;31.45;16.20;;;;;;;-3.44;86.88;95329.59;2041645;29;20051;-59
2022/12/11 05:01:40;;;;;;;31.20;15.93;;;;;;;-3.45;86.84;95328.75;2041193;29;20433;-57
2022/12/11 05:02:41;;;;;;;31.08;16.92;;;;;;;-3.41;87.33;95332.13;2041372;29;20055;-58
2022/12/11 05:03:42;;;;;;;29.92;15.77;;;;;;;-3.41;87.00;95332.97;2041608;29;20047;-58
2022/12/11 05:04:43;;;;;;;34.00;17.23;;;;;;;-3.42;86.53;95330.41;2040997;29;20056;-58